Time;durP1;ratioP1;P1;durP2;ratioP2;P2;SDS_P1;SDS_P2;PMS_P1;PMS_P2;Temp;Humidity;BMP_temperature;BMP_pressure;BME280_temperature;BME280_humidity;BME280_pressure;Samples;Min_cycle;Max_cycle;Signal;HPM_P1;HPM_P2
2023/06/25 00:02:05;;;;;;;0.00;0.00;;;17.20;99.90;;;;;;6245119;23;20068;-88
2023/06/25 00:04:31;;;;;;;0.00;0.00;;;;;;;;;;6243413;23;20000;-87
2023/06/25 00:06:57;;;;;;;0.00;0.00;;;;;;;;;;6243398;23;20351;-85
2023/06/25 00:09:23;;;;;;;0.00;0.00;;;;;;;;;;6242835;22;20337;-87
2023/06/25 00:11:48;;;;;;;0.00;0.00;;;17.00;99.90;;;;;;6243260;23;20016;-87
2023/06/25 00:14:14;;;;;;;0.00;0.00;;;;;;;;;;6243329;23;20023;-87
2023/06/25 00:16:40;;;;;;;0.00;0.00;;;17.00;99.90;;;;;;6243453;23;20012;-87
2023/06/25 00:19:06;;;;;;;0.00;0.00;;;;;;;;;;6243581;22;20107;-87
2023/06/25 00:21:32;;;;;;;0.00;0.00;;;;;;;;;;6243344;23;20000;-87
2023/06/25 00:23:57;;;;;;;0.00;0.00;;;16.90;99.90;;;;;;6244867;22;20000;-87
2023/06/25 00:26:23;;;;;;;0.00;0.00;;;;;;;;;;6243479;23;20352;-87
2023/06/25 00:28:50;;;;;;;0.00;0.00;;;;;;;;;;6243418;22;20515;-87
2023/06/25 00:31:15;;;;;;;0.00;0.00;;;16.70;99.90;;;;;;6245127;22;20004;-90
2023/06/25 00:33:42;;;;;;;0.00;0.00;;;16.80;99.90;;;;;;6242859;23;20107;-87
2023/06/25 00:36:08;;;;;;;0.00;0.00;;;16.80;99.90;;;;;;6243117;23;20096;-87
2023/06/25 00:38:35;;;;;;;0.00;0.00;;;16.80;99.90;;;;;;6242710;23;20024;-87
2023/06/25 00:41:00;;;;;;;0.00;0.00;;;19.90;99.90;;;;;;6242615;22;20012;-87
2023/06/25 00:43:26;;;;;;;0.00;0.00;;;;;;;;;;6242942;23;20030;-88
2023/06/25 00:45:53;;;;;;;0.00;0.00;;;;;;;;;;6243229;23;20050;-85
2023/06/25 00:48:21;;;;;;;0.00;0.00;;;16.80;99.90;;;;;;6243078;23;20004;-87
2023/06/25 00:50:47;;;;;;;0.00;0.00;;;;;;;;;;6242943;22;20008;-87
2023/06/25 00:53:13;;;;;;;0.00;0.00;;;;;;;;;;6243149;23;20004;-87
2023/06/25 00:55:39;;;;;;;0.00;0.00;;;;;;;;;;6244758;23;19996;-87
2023/06/25 00:58:07;;;;;;;0.00;0.00;;;;;;;;;;6242869;23;20058;-87
2023/06/25 01:00:33;;;;;;;0.00;0.00;;;16.60;99.90;;;;;;6242916;22;19996;-87
2023/06/25 01:03:30;;;;;;;0.00;0.00;;;16.50;99.90;;;;;;6243060;23;20000;-87
2023/06/25 01:06:08;;;;;;;0.00;0.00;;;16.40;99.90;;;;;;6236641;23;20404;-87
2023/06/25 01:08:37;;;;;;;0.00;0.00;;;16.30;99.90;;;;;;6242842;23;20091;-86
2023/06/25 01:11:05;;;;;;;0.00;0.00;;;;;;;;;;6243158;23;20008;-87
2023/06/25 01:13:31;;;;;;;0.00;0.00;;;16.40;99.90;;;;;;6241546;23;20004;-87
2023/06/25 01:15:56;;;;;;;0.00;0.00;;;;;;;;;;6242792;23;20060;-88
2023/06/25 01:18:23;;;;;;;0.00;0.00;;;;;;;;;;6242712;23;20134;-88
2023/06/25 01:20:51;;;;;;;0.00;0.00;;;16.20;99.90;;;;;;6244690;22;20006;-87
2023/06/25 01:23:17;;;;;;;0.00;0.00;;;16.10;99.90;;;;;;6268636;22;20407;-86
2023/06/25 01:25:47;;;;;;;0.00;0.00;;;16.00;99.90;;;;;;6242900;23;20035;-87
2023/06/25 01:28:13;;;;;;;;;;;15.10;99.90;;;;;;6243257;23;20081;-87
2023/06/25 01:30:39;;;;;;;0.00;0.00;;;;;;;;;;6242855;22;20328;-87
2023/06/25 01:33:05;;;;;;;0.00;0.00;;;;;;;;;;6242221;23;20441;-87
2023/06/25 01:35:30;;;;;;;0.00;0.00;;;16.10;99.90;;;;;;6244605;23;20000;-85
2023/06/25 01:37:58;;;;;;;0.00;0.00;;;;;;;;;;6242485;23;20008;-88
2023/06/25 01:40:24;;;;;;;0.00;0.00;;;;;;;;;;6242395;22;20373;-89
2023/06/25 01:42:50;;;;;;;0.00;0.00;;;;;;;;;;6242738;23;20376;-87
2023/06/25 01:45:16;;;;;;;0.00;0.00;;;;;;;;;;6243278;23;20000;-87
2023/06/25 01:47:42;;;;;;;0.00;0.00;;;;;;;;;;6243085;23;20504;-87
2023/06/25 01:50:08;;;;;;;0.00;0.00;;;;;;;;;;6242632;22;20008;-87
2023/06/25 01:52:34;;;;;;;0.00;0.00;;;;;;;;;;6242828;23;20011;-88
2023/06/25 01:55:00;;;;;;;0.00;0.00;;;;;;;;;;6242739;23;20008;-87
2023/06/25 01:57:26;;;;;;;0.00;0.00;;;;;;;;;;6244146;23;20456;-88
2023/06/25 01:59:52;;;;;;;0.00;0.00;;;;;;;;;;6244409;22;20024;-89
2023/06/25 02:02:18;;;;;;;0.00;0.00;;;;;;;;;;6246191;23;20003;-87
2023/06/25 02:04:44;;;;;;;0.00;0.00;;;;;;;;;;6245990;23;20015;-86
2023/06/25 02:07:09;;;;;;;0.00;0.00;;;16.10;99.90;;;;;;6244753;23;20352;-87
2023/06/25 02:09:35;;;;;;;0.00;0.00;;;15.90;99.90;;;;;;6244438;22;20465;-88
2023/06/25 02:12:01;;;;;;;0.00;0.00;;;;;;;;;;6244163;23;20004;-88
2023/06/25 02:14:27;;;;;;;0.00;0.00;;;;;;;;;;6244592;23;19996;-88
2023/06/25 02:16:53;;;;;;;0.00;0.00;;;;;;;;;;6244343;23;20039;-87
2023/06/25 02:19:19;;;;;;;0.00;0.00;;;;;;;;;;6244050;22;20000;-87
2023/06/25 02:21:44;;;;;;;0.00;0.00;;;;;;;;;;6244403;23;20004;-86
2023/06/25 02:24:10;;;;;;;0.00;0.00;;;;;;;;;;6244586;23;20004;-88
2023/06/25 02:26:36;;;;;;;0.00;0.00;;;;;;;;;;6244382;23;20011;-88
2023/06/25 02:29:02;;;;;;;0.00;0.00;;;;;;;;;;6244120;22;20475;-88
2023/06/25 02:31:28;;;;;;;0.00;0.00;;;;;;;;;;6244467;23;20039;-88
2023/06/25 02:33:54;;;;;;;0.00;0.00;;;;;;;;;;6245950;23;20076;-88
2023/06/25 02:36:20;;;;;;;0.00;0.00;;;;;;;;;;6244283;23;20440;-88
2023/06/25 02:38:46;;;;;;;0.00;0.00;;;;;;;;;;6243712;22;20007;-89
2023/06/25 02:41:12;;;;;;;0.00;0.00;;;;;;;;;;6244115;23;20015;-87
2023/06/25 02:43:37;;;;;;;0.00;0.00;;;15.90;99.90;;;;;;6244192;23;20023;-87
2023/06/25 02:46:03;;;;;;;0.00;0.00;;;;;;;;;;6244446;23;20360;-87
2023/06/25 02:48:29;;;;;;;0.00;0.00;;;;;;;;;;6246076;23;19996;-88
2023/06/25 02:50:55;;;;;;;0.00;0.00;;;;;;;;;;6244141;22;19993;-87
2023/06/25 02:53:21;;;;;;;0.00;0.00;;;;;;;;;;6244065;23;20302;-88
2023/06/25 02:55:47;;;;;;;0.00;0.00;;;;;;;;;;6244091;23;19996;-88
2023/06/25 02:58:13;;;;;;;0.00;0.00;;;;;;;;;;6243746;23;20012;-88
2023/06/25 03:00:39;;;;;;;0.00;0.00;;;;;;;;;;6243940;22;20000;-87
2023/06/25 03:03:05;;;;;;;0.00;0.00;;;;;;;;;;6244067;23;20433;-87
2023/06/25 03:05:32;;;;;;;0.00;0.00;;;;;;;;;;6244090;23;20001;-87
2023/06/25 03:07:58;;;;;;;0.00;0.00;;;15.90;99.90;;;;;;6245596;22;20011;-87
2023/06/25 03:10:28;;;;;;;0.00;0.00;;;16.00;99.90;;;;;;6243623;22;20075;-87
2023/06/25 03:12:54;;;;;;;;;;;17.00;99.90;;;;;;6244889;23;20027;-87
2023/06/25 03:15:20;;;;;;;0.00;0.00;;;;;;;;;;6243929;23;19903;-88
2023/06/25 03:17:46;;;;;;;0.00;0.00;;;;;;;;;;6244259;23;20318;-88
2023/06/25 03:20:13;;;;;;;0.00;0.00;;;;;;;;;;6243376;22;20445;-87
2023/06/25 03:22:39;;;;;;;0.00;0.00;;;;;;;;;;6244135;23;20024;-89
2023/06/25 03:25:05;;;;;;;0.00;0.00;;;;;;;;;;6243875;23;20004;-87
2023/06/25 03:27:34;;;;;;;0.00;0.00;;;15.70;99.90;;;;;;6243752;23;20008;-87
2023/06/25 03:30:00;;;;;;;0.00;0.00;;;;;;;;;;6243664;22;20012;-87
2023/06/25 03:32:26;;;;;;;0.00;0.00;;;15.80;99.90;;;;;;6243596;23;20004;-87
2023/06/25 03:34:52;;;;;;;0.00;0.00;;;;;;;;;;6243640;23;20066;-89
2023/06/25 03:37:18;;;;;;;0.00;0.00;;;;;;;;;;6243832;23;20456;-87
2023/06/25 03:39:43;;;;;;;0.00;0.00;;;15.90;99.90;;;;;;6242875;22;20012;-88
2023/06/25 03:42:09;;;;;;;0.00;0.00;;;;;;;;;;6245346;22;20008;-88
2023/06/25 03:44:35;;;;;;;0.00;0.00;;;;;;;;;;6243948;23;20004;-87
2023/06/25 03:47:01;;;;;;;0.00;0.00;;;15.90;99.90;;;;;;6245517;23;20028;-87
2023/06/25 03:49:27;;;;;;;0.00;0.00;;;;;;;;;;6243549;22;20477;-88
2023/06/25 03:51:53;;;;;;;0.00;0.00;;;;;;;;;;6243457;23;20008;-87
2023/06/25 03:54:18;;;;;;;0.00;0.00;;;;;;;;;;6243595;23;20130;-89
2023/06/25 03:56:44;;;;;;;0.00;0.00;;;;;;;;;;6243587;23;20267;-87
2023/06/25 03:59:10;;;;;;;0.00;0.00;;;;;;;;;;6243057;22;20008;-88
2023/06/25 04:01:36;;;;;;;0.00;0.00;;;;;;;;;;6243547;23;20122;-87
2023/06/25 04:04:02;;;;;;;0.00;0.00;;;;;;;;;;6243334;23;20054;-88
2023/06/25 04:06:28;;;;;;;0.00;0.00;;;;;;;;;;6243289;23;20102;-89
2023/06/25 04:08:54;;;;;;;0.00;0.00;;;;;;;;;;6243572;22;20036;-87
2023/06/25 04:11:20;;;;;;;0.00;0.00;;;;;;;;;;6243239;23;20066;-88
2023/06/25 04:13:46;;;;;;;0.00;0.00;;;;;;;;;;6243061;23;20376;-86
2023/06/25 04:16:14;;;;;;;0.00;0.00;;;;;;;;;;6244984;23;20000;-86
2023/06/25 04:18:41;;;;;;;0.00;0.00;;;16.30;99.90;;;;;;6243021;22;20000;-88
2023/06/25 04:21:07;;;;;;;0.00;0.00;;;;;;;;;;6243499;23;20028;-87
2023/06/25 04:23:34;;;;;;;0.00;0.00;;;16.40;99.90;;;;;;6243752;23;20008;-87
2023/06/25 04:26:00;;;;;;;0.00;0.00;;;;;;;;;;6243727;23;20006;-87
2023/06/25 04:28:26;;;;;;;0.00;0.00;;;;;;;;;;6243136;23;20091;-88
2023/06/25 04:30:51;;;;;;;0.00;0.00;;;;;;;;;;6243058;22;20004;-87
2023/06/25 04:33:19;;;;;;;0.00;0.00;;;;;;;;;;6243041;23;20004;-88
2023/06/25 04:35:45;;;;;;;0.00;0.00;;;;;;;;;;6245044;22;19997;-87
2023/06/25 04:38:11;;;;;;;0.00;0.00;;;;;;;;;;6243301;23;20466;-87
2023/06/25 04:40:37;;;;;;;0.00;0.00;;;;;;;;;;6242606;22;20012;-87
2023/06/25 04:43:03;;;;;;;0.00;0.00;;;;;;;;;;6242936;23;20012;-85
2023/06/25 04:45:29;;;;;;;0.00;0.00;;;;;;;;;;6243233;23;20003;-86
2023/06/25 04:47:55;;;;;;;0.00;0.00;;;;;;;;;;6243473;23;20349;-87
2023/06/25 04:50:21;;;;;;;0.00;0.00;;;;;;;;;;6243244;22;20460;-87
2023/06/25 04:52:49;;;;;;;0.00;0.00;;;17.20;99.90;;;;;;6242965;23;20012;-89
2023/06/25 04:55:14;;;;;;;0.00;0.00;;;16.90;99.90;;;;;;6242894;23;19996;-89
2023/06/25 04:57:40;;;;;;;0.00;0.00;;;;;;;;;;6242804;23;20096;-89
2023/06/25 05:00:09;;;;;;;0.00;0.00;;;;;;;;;;6242857;22;20404;-88
2023/06/25 05:02:35;;;;;;;0.00;0.00;;;;;;;;;;6243115;23;19996;-88
2023/06/25 05:05:01;;;;;;;0.00;0.00;;;;;;;;;;6243266;23;20564;-88
2023/06/25 05:07:27;;;;;;;0.00;0.00;;;;;;;;;;6243430;23;20008;-88
2023/06/25 05:09:53;;;;;;;0.00;0.00;;;;;;;;;;6242476;22;20008;-88
2023/06/25 05:12:19;;;;;;;0.00;0.00;;;;;;;;;;6243470;23;20015;-87
2023/06/25 05:14:45;;;;;;;0.00;0.00;;;;;;;;;;6243063;23;20058;-87
2023/06/25 05:17:11;;;;;;;0.00;0.00;;;;;;;;;;6242956;23;20008;-88
2023/06/25 05:19:37;;;;;;;0.00;0.00;;;;;;;;;;6242983;22;20380;-87
2023/06/25 05:22:04;;;;;;;0.00;0.00;;;18.10;99.90;;;;;;6242929;23;20011;-87
2023/06/25 05:24:30;;;;;;;0.00;0.00;;;18.10;99.90;;;;;;6243062;23;20055;-88
2023/06/25 05:26:56;;;;;;;0.00;0.00;;;;;;;;;;6242883;23;20031;-88
2023/06/25 05:29:22;;;;;;;0.00;0.00;;;;;;;;;;6242594;22;20007;-88
2023/06/25 05:31:48;;;;;;;0.00;0.00;;;;;;;;;;6244798;23;20337;-88
2023/06/25 05:34:13;;;;;;;0.00;0.00;;;18.40;99.90;;;;;;6243973;23;20000;-87
2023/06/25 05:36:39;;;;;;;0.00;0.00;;;;;;;;;;6244996;23;20341;-88
2023/06/25 05:39:05;;;;;;;0.00;0.00;;;18.70;99.90;;;;;;6244824;22;20059;-88
2023/06/25 05:41:31;;;;;;;0.00;0.00;;;;;;;;;;6244862;23;20003;-89
2023/06/25 05:43:56;;;;;;;0.00;0.00;;;18.80;99.90;;;;;;6246451;23;19996;-89
2023/06/25 05:46:22;;;;;;;0.00;0.00;;;;;;;;;;6245266;23;20057;-87
2023/06/25 05:48:48;;;;;;;0.00;0.00;;;19.30;99.90;;;;;;6244618;22;20012;-87
2023/06/25 05:51:14;;;;;;;0.00;0.00;;;;;;;;;;6246601;23;20336;-88
2023/06/25 05:53:43;;;;;;;0.00;0.00;;;19.40;99.90;;;;;;6244609;23;20036;-88
2023/06/25 05:56:09;;;;;;;0.00;0.00;;;;;;;;;;6244726;23;20066;-88
2023/06/25 05:58:35;;;;;;;0.00;0.00;;;19.50;99.90;;;;;;6244317;23;20433;-88
2023/06/25 06:01:01;;;;;;;0.00;0.00;;;;;;;;;;6244602;22;20028;-87
2023/06/25 06:03:27;;;;;;;0.00;0.00;;;;;;;;;;6244649;23;20004;-87
2023/06/25 06:05:53;;;;;;;0.00;0.00;;;;;;;;;;6244362;23;20007;-87
2023/06/25 06:08:19;;;;;;;0.00;0.00;;;19.80;99.90;;;;;;6244574;23;20004;-88
2023/06/25 06:10:45;;;;;;;0.00;0.00;;;;;;;;;;6244162;22;20490;-87
2023/06/25 06:13:11;;;;;;;0.00;0.00;;;;;;;;;;6244648;23;20012;-87
2023/06/25 06:15:36;;;;;;;0.00;0.00;;;20.00;99.90;;;;;;6244390;23;20004;-89
2023/06/25 06:18:02;;;;;;;0.00;0.00;;;;;;;;;;6244120;23;20058;-89
2023/06/25 06:20:28;;;;;;;0.00;0.00;;;;;;;;;;6244226;22;19996;-87
2023/06/25 06:22:54;;;;;;;0.00;0.00;;;;;;;;;;6244436;23;20000;-87
2023/06/25 06:25:20;;;;;;;0.00;0.00;;;;;;;;;;6244611;23;20004;-87
2023/06/25 06:27:45;;;;;;;0.00;0.00;;;20.20;99.90;;;;;;6244294;23;20004;-86
2023/06/25 06:30:11;;;;;;;0.00;0.00;;;20.30;99.90;;;;;;6244006;22;20008;-87
2023/06/25 06:32:37;;;;;;;0.00;0.00;;;20.30;99.90;;;;;;6243845;23;20008;-87
2023/06/25 06:35:03;;;;;;;0.00;0.00;;;;;;;;;;6244135;23;20028;-88
2023/06/25 06:37:28;;;;;;;0.00;0.00;;;20.40;99.90;;;;;;6244265;23;20000;-86
2023/06/25 06:39:54;;;;;;;0.00;0.00;;;;;;;;;;6243309;22;20498;-87
2023/06/25 06:42:20;;;;;;;0.00;0.00;;;;;;;;;;6243984;23;20067;-86
2023/06/25 06:44:46;;;;;;;0.00;0.00;;;;;;;;;;6244257;23;20054;-86
2023/06/25 06:47:12;;;;;;;0.00;0.00;;;;;;;;;;6244149;23;20008;-88
2023/06/25 06:49:38;;;;;;;0.00;0.00;;;;;;;;;;6243878;22;20166;-87
2023/06/25 06:52:04;;;;;;;0.00;0.00;;;21.00;99.90;;;;;;6243924;23;20008;-87
2023/06/25 06:54:29;;;;;;;0.00;0.00;;;;;;;;;;6243990;23;20014;-88
2023/06/25 06:56:55;;;;;;;0.00;0.00;;;;;;;;;;6243752;23;20004;-88
2023/06/25 06:59:21;;;;;;;0.00;0.00;;;;;;;;;;6243919;22;20058;-87
2023/06/25 07:01:47;;;;;;;0.00;0.00;;;21.60;99.90;;;;;;6244068;23;20055;-89
2023/06/25 07:04:13;;;;;;;0.00;0.00;;;;;;;;;;6244237;23;20004;-89
2023/06/25 07:06:39;;;;;;;0.00;0.00;;;;;;;;;;6244183;23;20444;-89
2023/06/25 07:09:04;;;;;;;0.00;0.00;;;21.70;99.90;;;;;;6244429;22;20028;-89
2023/06/25 07:11:30;;;;;;;0.00;0.00;;;;;;;;;;6245251;23;20004;-88
2023/06/25 07:13:56;;;;;;;0.00;0.00;;;;;;;;;;6245679;23;20459;-87
2023/06/25 07:16:22;;;;;;;0.00;0.00;;;;;;;;;;6243800;23;20031;-88
2023/06/25 07:18:48;;;;;;;0.00;0.00;;;;;;;;;;6243472;22;20007;-87
2023/06/25 07:21:14;;;;;;;0.00;0.00;;;;;;;;;;6243886;23;20004;-87
2023/06/25 07:23:40;;;;;;;0.00;0.00;;;;;;;;;;6243684;23;20087;-87
2023/06/25 07:26:06;;;;;;;0.00;0.00;;;;;;;;;;6243526;23;19996;-87
2023/06/25 07:28:32;;;;;;;0.00;0.00;;;;;;;;;;6243591;23;20004;-88
2023/06/25 07:30:58;;;;;;;0.00;0.00;;;;;;;;;;6243150;22;20433;-88
2023/06/25 07:33:24;;;;;;;0.00;0.00;;;;;;;;;;6243945;23;20000;-87
2023/06/25 07:35:49;;;;;;;0.00;0.00;;;22.40;99.90;;;;;;6243649;23;20000;-88
2023/06/25 07:38:15;;;;;;;0.00;0.00;;;;;;;;;;6243652;23;20364;-87
2023/06/25 07:40:40;;;;;;;0.00;0.00;;;22.90;99.90;;;;;;6242830;22;20008;-88
2023/06/25 07:43:07;;;;;;;0.00;0.00;;;;;;;;;;6243104;23;19996;-87
2023/06/25 07:45:32;;;;;;;0.00;0.00;;;;;;;;;;6243530;23;20284;-88
2023/06/25 07:47:58;;;;;;;0.00;0.00;;;;;;;;;;6243305;23;20004;-88
2023/06/25 07:50:24;;;;;;;0.00;0.00;;;;;;;;;;6243314;22;20062;-87
2023/06/25 07:52:51;;;;;;;0.00;0.00;;;;;;;;;;6243052;23;20079;-88
2023/06/25 07:55:17;;;;;;;0.00;0.00;;;;;;;;;;6243309;23;20055;-87
2023/06/25 07:57:43;;;;;;;0.00;0.00;;;;;;;;;;6243401;23;20573;-87
2023/06/25 08:00:09;;;;;;;0.00;0.00;;;23.60;99.90;;;;;;6243082;22;20368;-88
2023/06/25 08:02:35;;;;;;;0.00;0.00;;;23.60;99.90;;;;;;6243254;23;20000;-87
2023/06/25 08:05:00;;;;;;;0.00;0.00;;;;;;;;;;6243388;23;20002;-88
2023/06/25 08:07:26;;;;;;;0.00;0.00;;;;;;;;;;6243891;23;20007;-88
2023/06/25 08:09:52;;;;;;;0.00;0.00;;;23.70;99.90;;;;;;6242895;22;20428;-87
2023/06/25 08:12:18;;;;;;;0.00;0.00;;;;;;;;;;6243116;23;20432;-90
2023/06/25 08:14:45;;;;;;;0.00;0.00;;;23.70;99.90;;;;;;6244762;23;20095;-88
2023/06/25 08:17:10;;;;;;;0.00;0.00;;;23.70;99.90;;;;;;6243324;23;20012;-88
2023/06/25 08:19:36;;;;;;;0.00;0.00;;;23.70;99.90;;;;;;6243404;22;20080;-86
2023/06/25 08:22:02;;;;;;;0.00;0.00;;;23.80;99.90;;;;;;6243267;23;20000;-87
2023/06/25 08:24:27;;;;;;;0.00;0.00;;;;;;;;;;6243747;23;20004;-85
2023/06/25 08:26:53;;;;;;;0.00;0.00;;;;;;;;;;6243209;23;20004;-87
2023/06/25 08:29:20;;;;;;;0.00;0.00;;;;;;;;;;6243142;22;20004;-88
2023/06/25 08:31:46;;;;;;;0.00;0.00;;;;;;;;;;6243150;23;20015;-88
2023/06/25 08:34:12;;;;;;;0.00;0.00;;;;;;;;;;6242456;23;20344;-88
2023/06/25 08:36:38;;;;;;;0.00;0.00;;;;;;;;;;6243141;23;20042;-88
2023/06/25 08:39:04;;;;;;;0.00;0.00;;;;;;;;;;6243709;22;20012;-88
2023/06/25 08:41:30;;;;;;;0.00;0.00;;;;;;;;;;6243070;23;19996;-88
2023/06/25 08:43:56;;;;;;;0.00;0.00;;;;;;;;;;6242717;23;20495;-90
2023/06/25 08:46:25;;;;;;;0.00;0.00;;;24.60;99.90;;;;;;6243143;23;20004;-88
2023/06/25 08:48:52;;;;;;;;;;;24.60;99.90;;;;;;6243357;22;20117;-88
2023/06/25 08:51:22;;;;;;;0.00;0.00;;;24.70;99.90;;;;;;6243221;23;19969;-88
2023/06/25 08:53:48;;;;;;;0.00;0.00;;;;;;;;;;6242983;23;20024;-89
2023/06/25 08:56:18;;;;;;;0.00;0.00;;;24.80;99.90;;;;;;6242942;23;20054;-88
2023/06/25 08:58:44;;;;;;;0.00;0.00;;;24.80;99.90;;;;;;6242793;22;19999;-87
2023/06/25 09:01:12;;;;;;;0.00;0.00;;;24.80;99.90;;;;;;6243417;23;20044;-88
2023/06/25 09:03:38;;;;;;;0.00;0.00;;;;;;;;;;6243179;23;20027;-88
2023/06/25 09:06:12;;;;;;;0.00;0.00;;;24.90;99.90;;;;;;6242653;23;20453;-89
2023/06/25 09:08:40;;;;;;;0.00;0.00;;;24.80;99.90;;;;;;6268427;22;20004;-87
2023/06/25 09:11:06;;;;;;;0.00;0.00;;;25.90;99.90;;;;;;6242672;23;20030;-89
2023/06/25 09:13:31;;;;;;;0.00;0.00;;;;;;;;;;6244539;22;20059;-88
2023/06/25 09:16:02;;;;;;;0.00;0.00;;;25.00;99.50;;;;;;6244932;23;20000;-87
2023/06/25 09:18:29;;;;;;;0.00;0.00;;;;;;;;;;6242922;23;20004;-87
2023/06/25 09:20:55;;;;;;;0.00;0.00;;;25.00;99.90;;;;;;6242807;22;20012;-89
2023/06/25 09:23:23;;;;;;;0.00;0.00;;;25.30;99.50;;;;;;6242980;23;20004;-87
2023/06/25 09:25:50;;;;;;;0.00;0.00;;;25.20;99.90;;;;;;6243033;23;20036;-89
2023/06/25 09:28:15;;;;;;;0.00;0.00;;;26.50;99.90;;;;;;6242449;23;20050;-87
2023/06/25 09:30:42;;;;;;;0.00;0.00;;;;;;;;;;6242670;22;20016;-86
2023/06/25 09:33:08;;;;;;;0.00;0.00;;;;;;;;;;6244095;23;20000;-86
2023/06/25 09:35:34;;;;;;;0.00;0.00;;;;;;;;;;6243478;23;20008;-87
2023/06/25 09:38:01;;;;;;;0.00;0.00;;;25.50;99.80;;;;;;6242786;23;20472;-88
2023/06/25 09:40:27;;;;;;;0.00;0.00;;;;;;;;;;6242209;22;20389;-88
2023/06/25 09:42:54;;;;;;;0.00;0.00;;;25.50;98.30;;;;;;6242659;23;20379;-89
2023/06/25 09:45:21;;;;;;;0.00;0.00;;;25.50;98.00;;;;;;6243057;23;20352;-88
2023/06/25 09:47:49;;;;;;;0.00;0.00;;;25.60;97.60;;;;;;6244372;22;20005;-86
2023/06/25 09:50:27;;;;;;;0.00;0.00;;;25.50;97.70;;;;;;6242659;22;20083;-87
2023/06/25 09:52:55;;;;;;;0.00;0.00;;;25.80;97.90;;;;;;6242892;23;20011;-88
2023/06/25 09:55:21;;;;;;;0.00;0.00;;;;;;;;;;6243253;23;20087;-87
2023/06/25 09:57:49;;;;;;;0.00;0.00;;;25.70;95.60;;;;;;6242378;23;20004;-87
2023/06/25 10:00:15;;;;;;;0.00;0.00;;;25.70;95.80;;;;;;6242650;22;20348;-87
2023/06/25 10:02:41;;;;;;;0.00;0.00;;;;;;;;;;6244658;22;20004;-88
2023/06/25 10:05:07;;;;;;;0.00;0.00;;;;;;;;;;6242942;23;20003;-88
2023/06/25 10:07:34;;;;;;;0.00;0.00;;;;;;;;;;6242983;23;20004;-87
2023/06/25 10:10:00;;;;;;;0.00;0.00;;;;;;;;;;6243733;22;20436;-89
2023/06/25 10:12:25;;;;;;;0.00;0.00;;;25.90;96.90;;;;;;6242606;23;20004;-87
2023/06/25 10:14:53;;;;;;;0.00;0.00;;;25.90;96.30;;;;;;6242524;23;20015;-87
2023/06/25 10:17:20;;;;;;;0.00;0.00;;;26.10;98.10;;;;;;6243778;23;20050;-89
2023/06/25 10:19:55;;;;;;;0.00;0.00;;;28.40;99.00;;;;;;6244278;22;20004;-89
2023/06/25 10:22:23;;;;;;;0.00;0.00;;;26.20;99.00;;;;;;6244740;23;20083;-88
2023/06/25 10:24:50;;;;;;;0.00;0.00;;;26.20;98.80;;;;;;6244440;23;20012;-88
2023/06/25 10:27:33;;;;;;;0.00;0.00;;;26.10;98.90;;;;;;6244589;23;20492;-88
2023/06/25 10:29:59;;;;;;;0.00;0.00;;;;;;;;;;6244386;22;20038;-91
2023/06/25 10:32:29;;;;;;;0.00;0.00;;;26.30;98.40;;;;;;6244314;23;20000;-88
2023/06/25 10:34:55;;;;;;;0.00;0.00;;;26.30;98.60;;;;;;6244047;23;20004;-87
2023/06/25 10:37:22;;;;;;;0.00;0.00;;;;;;;;;;6244238;23;20098;-87
2023/06/25 10:39:48;;;;;;;0.00;0.00;;;;;;;;;;6243387;22;20008;-88
2023/06/25 10:42:14;;;;;;;0.00;0.00;;;;;;;;;;6243866;23;20074;-88
2023/06/25 10:44:40;;;;;;;0.00;0.00;;;26.40;97.60;;;;;;6244339;23;20015;-88
2023/06/25 10:47:07;;;;;;;0.00;0.00;;;28.70;98.60;;;;;;6244440;23;20011;-90
2023/06/25 10:49:34;;;;;;;0.00;0.00;;;26.70;95.70;;;;;;6244060;22;20004;-87
2023/06/25 10:52:05;;;;;;;0.00;0.00;;;26.60;95.90;;;;;;6244149;23;20059;-91
2023/06/25 10:54:31;;;;;;;0.00;0.00;;;27.10;98.00;;;;;;6244549;23;20012;-89
2023/06/25 10:57:10;;;;;;;0.00;0.00;;;27.00;98.10;;;;;;6243721;23;20452;-86
2023/06/25 10:59:37;;;;;;;0.00;0.00;;;27.20;96.20;;;;;;6244088;22;20005;-88
2023/06/25 11:02:20;;;;;;;0.00;0.00;;;27.10;96.40;;;;;;6244036;23;20030;-88
2023/06/25 11:04:59;;;;;;;0.00;0.00;;;27.30;95.00;;;;;;6244110;23;20004;-88
2023/06/25 11:07:25;;;;;;;0.00;0.00;;;;;;;;;;6243510;23;20432;-88
2023/06/25 11:09:54;;;;;;;0.00;0.00;;;27.40;96.90;;;;;;6244958;22;20004;-88
2023/06/25 11:12:19;;;;;;;0.00;0.00;;;27.40;97.10;;;;;;6244279;23;20086;-88
2023/06/25 11:14:45;;;;;;;0.00;0.00;;;;;;;;;;6244196;23;20453;-88
2023/06/25 11:17:15;;;;;;;0.00;0.00;;;27.30;94.20;;;;;;6244373;23;20011;-90
2023/06/25 11:19:40;;;;;;;0.00;0.00;;;27.40;94.50;;;;;;6243994;22;20008;-88
2023/06/25 11:22:09;;;;;;;0.00;0.00;;;27.60;94.50;;;;;;6245219;23;20004;-89
2023/06/25 11:24:36;;;;;;;0.00;0.00;;;27.90;94.90;;;;;;6269544;22;20007;-88
2023/06/25 11:27:03;;;;;;;0.00;0.00;;;27.90;95.00;;;;;;6244219;23;20091;-87
2023/06/25 11:29:42;;;;;;;0.00;0.00;;;27.80;95.60;;;;;;6243620;22;20004;-87
2023/06/25 11:32:09;;;;;;;0.00;0.00;;;27.80;95.90;;;;;;6244301;23;20008;-87
2023/06/25 11:34:44;;;;;;;0.00;0.00;;;27.90;94.20;;;;;;6243447;23;20005;-87
2023/06/25 11:37:11;;;;;;;0.00;0.00;;;28.00;96.00;;;;;;6243684;23;20010;-89
2023/06/25 11:39:47;;;;;;;0.00;0.00;;;28.10;95.80;;;;;;6253232;22;20020;-88
2023/06/25 11:42:17;;;;;;;0.00;0.00;;;28.00;96.60;;;;;;6290402;22;20410;-84
2023/06/25 11:44:44;;;;;;;0.00;0.00;;;28.50;95.00;;;;;;6291411;22;20010;-90
2023/06/25 11:47:10;;;;;;;0.00;0.00;;;;;;;;;;6291113;22;20007;-90
2023/06/25 11:49:37;;;;;;;0.00;0.00;;;28.80;94.40;;;;;;6291165;22;20018;-90
2023/06/25 11:52:03;;;;;;;0.00;0.00;;;28.60;94.50;;;;;;6290351;22;20014;-90
2023/06/25 11:54:29;;;;;;;0.00;0.00;;;;;;;;;;6291283;22;20003;-87
2023/06/25 11:56:55;;;;;;;0.00;0.00;;;;;;;;;;6290005;22;20007;-89
2023/06/25 11:59:21;;;;;;;0.00;0.00;;;;;;;;;;6290980;22;20023;-90
2023/06/25 12:01:47;;;;;;;0.00;0.00;;;;;;;;;;6289818;22;20010;-90
2023/06/25 12:04:12;;;;;;;0.00;0.00;;;;;;;;;;6291405;22;20063;-89
2023/06/25 12:06:38;;;;;;;0.00;0.00;;;;;;;;;;6289384;22;20012;-90
2023/06/25 12:09:04;;;;;;;0.00;0.00;;;;;;;;;;6290785;22;20000;-88
2023/06/25 12:11:30;;;;;;;0.00;0.00;;;28.80;90.60;;;;;;6293422;22;20087;-89
2023/06/25 12:13:56;;;;;;;0.00;0.00;;;;;;;;;;6294243;22;20007;-90
2023/06/25 12:16:22;;;;;;;0.00;0.00;;;;;;;;;;6290082;22;20003;-90
2023/06/25 12:18:48;;;;;;;0.00;0.00;;;;;;;;;;6289897;22;19999;-88
2023/06/25 12:21:14;;;;;;;0.00;0.00;;;28.10;95.30;;;;;;6290837;22;20386;-90
2023/06/25 12:23:40;;;;;;;0.00;0.00;;;;;;;;;;6290199;22;20000;-90
2023/06/25 12:26:06;;;;;;;0.00;0.00;;;;;;;;;;6290243;22;20004;-91
2023/06/25 12:28:32;;;;;;;0.00;0.00;;;;;;;;;;6290307;22;20004;-89
2023/06/25 12:30:58;;;;;;;0.00;0.00;;;;;;;;;;6289064;22;20420;-89
2023/06/25 12:33:24;;;;;;;0.00;0.00;;;;;;;;;;6289025;22;20003;-90
2023/06/25 12:35:50;;;;;;;0.00;0.00;;;;;;;;;;6289559;22;20008;-88
2023/06/25 12:38:16;;;;;;;0.00;0.00;;;;;;;;;;6288752;22;20039;-89
2023/06/25 12:40:41;;;;;;;0.00;0.00;;;;;;;;;;6288287;22;20007;-91
2023/06/25 12:43:07;;;;;;;0.00;0.00;;;;;;;;;;6289523;22;20086;-90
2023/06/25 12:45:33;;;;;;;0.00;0.00;;;;;;;;;;6289509;22;20103;-91
2023/06/25 12:47:59;;;;;;;0.00;0.00;;;;;;;;;;6289737;22;20000;-90
2023/06/25 12:50:25;;;;;;;0.00;0.00;;;;;;;;;;6288065;22;20035;-90
2023/06/25 12:52:51;;;;;;;0.00;0.00;;;;;;;;;;6289456;22;20015;-89
2023/06/25 12:55:17;;;;;;;0.00;0.00;;;;;;;;;;6288638;22;20004;-90
2023/06/25 12:57:43;;;;;;;0.00;0.00;;;;;;;;;;6287687;22;20071;-88
2023/06/25 13:00:09;;;;;;;0.00;0.00;;;;;;;;;;6288590;22;20003;-89
2023/06/25 13:02:35;;;;;;;0.00;0.00;;;;;;;;;;6288977;22;20008;-89
2023/06/25 13:05:01;;;;;;;0.00;0.00;;;;;;;;;;6288471;22;20429;-89
2023/06/25 13:07:27;;;;;;;0.00;0.00;;;;;;;;;;6288263;22;20352;-89
2023/06/25 13:09:53;;;;;;;0.00;0.00;;;;;;;;;;6289496;22;20010;-91
2023/06/25 13:12:19;;;;;;;0.00;0.00;;;;;;;;;;6289557;22;19999;-90
2023/06/25 13:14:45;;;;;;;0.00;0.00;;;;;;;;;;6289003;22;20011;-90
2023/06/25 13:17:11;;;;;;;0.00;0.00;;;29.50;89.20;;;;;;6288093;22;20008;-90
2023/06/25 13:19:38;;;;;;;0.00;0.00;;;;;;;;;;6288067;22;20000;-89
2023/06/25 13:22:04;;;;;;;0.00;0.00;;;;;;;;;;6288433;22;20046;-89
2023/06/25 13:24:31;;;;;;;0.00;0.00;;;;;;;;;;6286742;22;20059;-88
2023/06/25 13:26:56;;;;;;;0.00;0.00;;;30.10;90.60;;;;;;6287209;22;20428;-89
2023/06/25 13:29:22;;;;;;;0.00;0.00;;;;;;;;;;6286537;22;20038;-91
2023/06/25 13:31:49;;;;;;;0.00;0.00;;;;;;;;;;6286456;22;20435;-90
2023/06/25 13:34:15;;;;;;;0.00;0.00;;;;;;;;;;6286035;22;20328;-90
2023/06/25 13:36:41;;;;;;;0.00;0.00;;;;;;;;;;6285873;22;20010;-91
2023/06/25 13:39:07;;;;;;;0.00;0.00;;;;;;;;;;6285155;22;20391;-89
2023/06/25 13:41:33;;;;;;;0.00;0.00;;;;;;;;;;6286657;22;20008;-89
2023/06/25 13:43:59;;;;;;;0.00;0.00;;;;;;;;;;6288201;22;20083;-90
2023/06/25 13:46:25;;;;;;;0.00;0.00;;;;;;;;;;6288074;22;20000;-89
2023/06/25 13:48:50;;;;;;;0.00;0.00;;;;;;;;;;6286288;22;20027;-89
2023/06/25 13:51:16;;;;;;;0.00;0.00;;;;;;;;;;6286218;22;20000;-89
2023/06/25 13:53:43;;;;;;;0.00;0.00;;;;;;;;;;6289421;22;20031;-90
2023/06/25 13:56:10;;;;;;;0.00;0.00;;;30.20;84.70;;;;;;6288731;22;19999;-89